sensor_id;sensor_type;location;lat;lon;timestamp;temperature;humidity
20670;DHT22;10494;50.868;4.180;2023-05-07T00:00:26;16.50;99.90
20670;DHT22;10494;50.868;4.180;2023-05-07T00:02:52;16.60;99.90
20670;DHT22;10494;50.868;4.180;2023-05-07T00:05:19;16.60;99.90
20670;DHT22;10494;50.868;4.180;2023-05-07T00:07:44;16.60;99.90
20670;DHT22;10494;50.868;4.180;2023-05-07T00:10:10;16.60;99.90
20670;DHT22;10494;50.868;4.180;2023-05-07T00:12:37;16.70;99.90
20670;DHT22;10494;50.868;4.180;2023-05-07T00:15:03;16.60;99.90
20670;DHT22;10494;50.868;4.180;2023-05-07T00:17:30;16.70;99.90
20670;DHT22;10494;50.868;4.180;2023-05-07T00:19:57;16.60;99.90
20670;DHT22;10494;50.868;4.180;2023-05-07T00:22:22;16.70;99.90
20670;DHT22;10494;50.868;4.180;2023-05-07T00:24:48;16.60;99.90
20670;DHT22;10494;50.868;4.180;2023-05-07T00:27:13;16.60;99.90
20670;DHT22;10494;50.868;4.180;2023-05-07T00:29:40;16.60;99.90
20670;DHT22;10494;50.868;4.180;2023-05-07T00:32:06;16.50;99.90
20670;DHT22;10494;50.868;4.180;2023-05-07T00:34:31;16.50;99.90
20670;DHT22;10494;50.868;4.180;2023-05-07T00:36:57;16.50;99.90
20670;DHT22;10494;50.868;4.180;2023-05-07T00:39:23;16.50;99.90
20670;DHT22;10494;50.868;4.180;2023-05-07T00:41:48;16.40;99.90
20670;DHT22;10494;50.868;4.180;2023-05-07T00:44:14;16.30;99.90
20670;DHT22;10494;50.868;4.180;2023-05-07T00:46:40;16.20;99.90
20670;DHT22;10494;50.868;4.180;2023-05-07T00:49:06;16.20;99.90
20670;DHT22;10494;50.868;4.180;2023-05-07T00:51:33;16.10;99.90
20670;DHT22;10494;50.868;4.180;2023-05-07T00:54:00;16.00;99.90
20670;DHT22;10494;50.868;4.180;2023-05-07T00:56:27;16.00;99.90
20670;DHT22;10494;50.868;4.180;2023-05-07T00:58:53;16.00;99.90
20670;DHT22;10494;50.868;4.180;2023-05-07T01:01:18;16.00;99.90
20670;DHT22;10494;50.868;4.180;2023-05-07T01:03:44;15.90;99.90
20670;DHT22;10494;50.868;4.180;2023-05-07T01:06:11;15.90;99.90
20670;DHT22;10494;50.868;4.180;2023-05-07T01:08:40;15.90;99.90
20670;DHT22;10494;50.868;4.180;2023-05-07T01:11:07;15.90;99.90
20670;DHT22;10494;50.868;4.180;2023-05-07T01:13:34;16.00;99.90
20670;DHT22;10494;50.868;4.180;2023-05-07T01:16:00;15.90;99.90
20670;DHT22;10494;50.868;4.180;2023-05-07T01:18:26;15.80;99.90
20670;DHT22;10494;50.868;4.180;2023-05-07T01:20:52;15.70;99.90
20670;DHT22;10494;50.868;4.180;2023-05-07T01:23:20;15.80;99.90
20670;DHT22;10494;50.868;4.180;2023-05-07T01:25:53;15.70;99.90
20670;DHT22;10494;50.868;4.180;2023-05-07T01:28:19;15.70;99.90
20670;DHT22;10494;50.868;4.180;2023-05-07T01:30:48;15.60;99.90
20670;DHT22;10494;50.868;4.180;2023-05-07T01:33:18;15.50;99.90
20670;DHT22;10494;50.868;4.180;2023-05-07T01:35:50;15.50;99.90
20670;DHT22;10494;50.868;4.180;2023-05-07T01:38:18;15.40;99.90
20670;DHT22;10494;50.868;4.180;2023-05-07T01:40:44;15.40;99.90
20670;DHT22;10494;50.868;4.180;2023-05-07T01:43:10;15.30;99.90
20670;DHT22;10494;50.868;4.180;2023-05-07T01:45:37;15.30;99.90
20670;DHT22;10494;50.868;4.180;2023-05-07T01:48:03;15.30;99.90
20670;DHT22;10494;50.868;4.180;2023-05-07T01:50:30;15.20;99.90
20670;DHT22;10494;50.868;4.180;2023-05-07T01:52:58;15.20;99.90
20670;DHT22;10494;50.868;4.180;2023-05-07T01:55:24;15.20;99.90
20670;DHT22;10494;50.868;4.180;2023-05-07T01:57:49;15.20;99.90
20670;DHT22;10494;50.868;4.180;2023-05-07T02:00:15;15.20;99.90
20670;DHT22;10494;50.868;4.180;2023-05-07T02:02:41;15.20;99.90
20670;DHT22;10494;50.868;4.180;2023-05-07T02:05:07;15.20;99.90
20670;DHT22;10494;50.868;4.180;2023-05-07T02:07:33;15.20;99.90
20670;DHT22;10494;50.868;4.180;2023-05-07T02:09:58;15.20;99.90
20670;DHT22;10494;50.868;4.180;2023-05-07T02:12:24;15.10;99.90
20670;DHT22;10494;50.868;4.180;2023-05-07T02:14:50;15.10;99.90
20670;DHT22;10494;50.868;4.180;2023-05-07T02:17:15;15.10;99.90
20670;DHT22;10494;50.868;4.180;2023-05-07T02:19:41;15.10;99.90
20670;DHT22;10494;50.868;4.180;2023-05-07T02:22:07;15.10;99.90
20670;DHT22;10494;50.868;4.180;2023-05-07T02:24:33;15.10;99.90
20670;DHT22;10494;50.868;4.180;2023-05-07T02:26:58;15.10;99.90
20670;DHT22;10494;50.868;4.180;2023-05-07T02:29:24;15.10;99.90
20670;DHT22;10494;50.868;4.180;2023-05-07T02:31:50;15.10;99.90
20670;DHT22;10494;50.868;4.180;2023-05-07T02:34:19;15.20;99.90
20670;DHT22;10494;50.868;4.180;2023-05-07T02:36:45;15.30;99.90
20670;DHT22;10494;50.868;4.180;2023-05-07T02:39:12;15.30;99.90
20670;DHT22;10494;50.868;4.180;2023-05-07T02:41:37;15.30;99.90
20670;DHT22;10494;50.868;4.180;2023-05-07T02:44:03;15.40;99.90
20670;DHT22;10494;50.868;4.180;2023-05-07T02:46:29;15.50;99.90
20670;DHT22;10494;50.868;4.180;2023-05-07T02:48:55;15.40;99.90
20670;DHT22;10494;50.868;4.180;2023-05-07T02:51:22;15.40;99.90
20670;DHT22;10494;50.868;4.180;2023-05-07T02:53:48;15.40;99.90
20670;DHT22;10494;50.868;4.180;2023-05-07T02:56:14;15.40;99.90
20670;DHT22;10494;50.868;4.180;2023-05-07T02:58:40;15.40;99.90
20670;DHT22;10494;50.868;4.180;2023-05-07T03:01:06;15.50;99.90
20670;DHT22;10494;50.868;4.180;2023-05-07T03:03:32;15.50;99.90
20670;DHT22;10494;50.868;4.180;2023-05-07T03:05:57;15.50;99.90
20670;DHT22;10494;50.868;4.180;2023-05-07T03:08:23;15.50;99.90
20670;DHT22;10494;50.868;4.180;2023-05-07T03:10:49;15.50;99.90
20670;DHT22;10494;50.868;4.180;2023-05-07T03:13:15;15.40;99.90
20670;DHT22;10494;50.868;4.180;2023-05-07T03:15:41;15.50;99.90
20670;DHT22;10494;50.868;4.180;2023-05-07T03:18:06;15.50;99.90
20670;DHT22;10494;50.868;4.180;2023-05-07T03:20:32;15.50;99.90
20670;DHT22;10494;50.868;4.180;2023-05-07T03:22:58;15.40;99.90
20670;DHT22;10494;50.868;4.180;2023-05-07T03:25:24;15.50;99.90
20670;DHT22;10494;50.868;4.180;2023-05-07T03:27:49;15.50;99.90
20670;DHT22;10494;50.868;4.180;2023-05-07T03:30:15;15.40;99.90
20670;DHT22;10494;50.868;4.180;2023-05-07T03:32:41;15.40;99.90
20670;DHT22;10494;50.868;4.180;2023-05-07T03:35:07;15.50;99.90
20670;DHT22;10494;50.868;4.180;2023-05-07T03:37:32;15.40;99.90
20670;DHT22;10494;50.868;4.180;2023-05-07T03:39:58;15.40;99.90
20670;DHT22;10494;50.868;4.180;2023-05-07T03:42:24;15.40;99.90
20670;DHT22;10494;50.868;4.180;2023-05-07T03:44:50;15.40;99.90
20670;DHT22;10494;50.868;4.180;2023-05-07T03:47:15;15.40;99.90
20670;DHT22;10494;50.868;4.180;2023-05-07T03:49:41;15.40;99.90
20670;DHT22;10494;50.868;4.180;2023-05-07T03:52:07;15.40;99.90
20670;DHT22;10494;50.868;4.180;2023-05-07T03:54:33;15.50;99.90
20670;DHT22;10494;50.868;4.180;2023-05-07T03:56:58;15.60;99.90
20670;DHT22;10494;50.868;4.180;2023-05-07T03:59:24;15.60;99.90
20670;DHT22;10494;50.868;4.180;2023-05-07T04:01:50;15.60;99.90
20670;DHT22;10494;50.868;4.180;2023-05-07T04:04:15;15.60;99.90
20670;DHT22;10494;50.868;4.180;2023-05-07T04:06:41;15.60;99.90
20670;DHT22;10494;50.868;4.180;2023-05-07T04:09:07;15.60;99.90
20670;DHT22;10494;50.868;4.180;2023-05-07T04:11:33;15.70;99.90
20670;DHT22;10494;50.868;4.180;2023-05-07T04:13:59;15.70;99.90
20670;DHT22;10494;50.868;4.180;2023-05-07T04:16:24;15.60;99.90
20670;DHT22;10494;50.868;4.180;2023-05-07T04:18:50;15.60;99.90
20670;DHT22;10494;50.868;4.180;2023-05-07T04:21:17;15.60;99.90
20670;DHT22;10494;50.868;4.180;2023-05-07T04:23:43;15.60;99.90
20670;DHT22;10494;50.868;4.180;2023-05-07T04:26:09;15.60;99.90
20670;DHT22;10494;50.868;4.180;2023-05-07T04:28:36;15.70;99.90
20670;DHT22;10494;50.868;4.180;2023-05-07T04:31:02;15.60;99.90
20670;DHT22;10494;50.868;4.180;2023-05-07T04:33:27;15.60;99.90
20670;DHT22;10494;50.868;4.180;2023-05-07T04:35:53;15.60;99.90
20670;DHT22;10494;50.868;4.180;2023-05-07T04:38:19;15.60;99.90
20670;DHT22;10494;50.868;4.180;2023-05-07T04:40:45;15.70;99.90
20670;DHT22;10494;50.868;4.180;2023-05-07T04:43:12;15.80;99.90
20670;DHT22;10494;50.868;4.180;2023-05-07T04:45:38;15.80;99.90
20670;DHT22;10494;50.868;4.180;2023-05-07T04:48:07;15.80;99.90
20670;DHT22;10494;50.868;4.180;2023-05-07T04:50:33;15.60;99.90
20670;DHT22;10494;50.868;4.180;2023-05-07T04:52:58;15.40;99.90
20670;DHT22;10494;50.868;4.180;2023-05-07T04:55:24;15.20;99.90
20670;DHT22;10494;50.868;4.180;2023-05-07T04:57:50;15.30;99.90
20670;DHT22;10494;50.868;4.180;2023-05-07T05:00:16;15.40;99.90
20670;DHT22;10494;50.868;4.180;2023-05-07T05:02:42;15.40;99.90
20670;DHT22;10494;50.868;4.180;2023-05-07T05:05:07;15.40;99.90
20670;DHT22;10494;50.868;4.180;2023-05-07T05:07:35;15.50;99.90
20670;DHT22;10494;50.868;4.180;2023-05-07T05:10:02;15.70;99.90
20670;DHT22;10494;50.868;4.180;2023-05-07T05:12:29;15.80;99.90
20670;DHT22;10494;50.868;4.180;2023-05-07T05:14:55;16.10;99.90
20670;DHT22;10494;50.868;4.180;2023-05-07T05:17:20;16.20;99.90
20670;DHT22;10494;50.868;4.180;2023-05-07T05:19:46;16.30;99.90
20670;DHT22;10494;50.868;4.180;2023-05-07T05:22:11;16.50;99.90
20670;DHT22;10494;50.868;4.180;2023-05-07T05:24:37;16.50;99.90
20670;DHT22;10494;50.868;4.180;2023-05-07T05:27:03;16.60;99.90
20670;DHT22;10494;50.868;4.180;2023-05-07T05:29:28;16.70;99.90
20670;DHT22;10494;50.868;4.180;2023-05-07T05:31:54;16.70;99.90
20670;DHT22;10494;50.868;4.180;2023-05-07T05:34:20;16.70;99.90
20670;DHT22;10494;50.868;4.180;2023-05-07T05:36:47;16.80;99.90
20670;DHT22;10494;50.868;4.180;2023-05-07T05:39:13;16.90;99.90
20670;DHT22;10494;50.868;4.180;2023-05-07T05:41:39;16.90;99.90
20670;DHT22;10494;50.868;4.180;2023-05-07T05:44:05;16.80;99.90
20670;DHT22;10494;50.868;4.180;2023-05-07T05:46:31;16.90;99.90
20670;DHT22;10494;50.868;4.180;2023-05-07T05:48:56;16.90;99.90
20670;DHT22;10494;50.868;4.180;2023-05-07T05:51:22;16.90;99.90
20670;DHT22;10494;50.868;4.180;2023-05-07T05:53:48;16.90;99.90
20670;DHT22;10494;50.868;4.180;2023-05-07T05:56:15;17.00;99.90
20670;DHT22;10494;50.868;4.180;2023-05-07T05:58:41;17.00;99.90
20670;DHT22;10494;50.868;4.180;2023-05-07T06:01:07;17.00;99.90
20670;DHT22;10494;50.868;4.180;2023-05-07T06:03:32;16.90;99.90
20670;DHT22;10494;50.868;4.180;2023-05-07T06:05:58;17.00;99.90
20670;DHT22;10494;50.868;4.180;2023-05-07T06:08:25;17.00;99.90
20670;DHT22;10494;50.868;4.180;2023-05-07T06:10:51;17.00;99.90
20670;DHT22;10494;50.868;4.180;2023-05-07T06:13:17;16.90;99.90
20670;DHT22;10494;50.868;4.180;2023-05-07T06:15:43;17.00;99.90
20670;DHT22;10494;50.868;4.180;2023-05-07T06:18:08;17.10;99.90
20670;DHT22;10494;50.868;4.180;2023-05-07T06:20:34;17.20;99.90
20670;DHT22;10494;50.868;4.180;2023-05-07T06:22:59;17.30;99.90
20670;DHT22;10494;50.868;4.180;2023-05-07T06:25:25;17.40;99.90
20670;DHT22;10494;50.868;4.180;2023-05-07T06:27:51;17.40;99.90
20670;DHT22;10494;50.868;4.180;2023-05-07T06:30:16;17.40;99.90
20670;DHT22;10494;50.868;4.180;2023-05-07T06:32:42;17.20;99.90
20670;DHT22;10494;50.868;4.180;2023-05-07T06:35:08;17.10;99.90
20670;DHT22;10494;50.868;4.180;2023-05-07T06:37:34;17.00;99.90
20670;DHT22;10494;50.868;4.180;2023-05-07T06:40:00;17.00;99.90
20670;DHT22;10494;50.868;4.180;2023-05-07T06:42:25;16.80;99.90
20670;DHT22;10494;50.868;4.180;2023-05-07T06:44:52;16.70;99.90
20670;DHT22;10494;50.868;4.180;2023-05-07T06:47:17;16.80;99.90
20670;DHT22;10494;50.868;4.180;2023-05-07T06:49:43;16.60;99.90
20670;DHT22;10494;50.868;4.180;2023-05-07T06:52:08;16.60;99.90
20670;DHT22;10494;50.868;4.180;2023-05-07T06:54:34;16.60;99.90
20670;DHT22;10494;50.868;4.180;2023-05-07T06:57:00;16.60;99.90
20670;DHT22;10494;50.868;4.180;2023-05-07T06:59:27;16.60;99.90
20670;DHT22;10494;50.868;4.180;2023-05-07T07:01:52;16.60;99.90
20670;DHT22;10494;50.868;4.180;2023-05-07T07:04:19;16.60;99.90
20670;DHT22;10494;50.868;4.180;2023-05-07T07:06:47;16.60;99.90
20670;DHT22;10494;50.868;4.180;2023-05-07T07:09:14;16.70;99.90
20670;DHT22;10494;50.868;4.180;2023-05-07T07:11:50;16.60;99.90
20670;DHT22;10494;50.868;4.180;2023-05-07T07:14:16;16.70;99.90
20670;DHT22;10494;50.868;4.180;2023-05-07T07:16:41;16.70;99.90
20670;DHT22;10494;50.868;4.180;2023-05-07T07:19:07;16.60;99.90
20670;DHT22;10494;50.868;4.180;2023-05-07T07:21:33;16.90;99.90
20670;DHT22;10494;50.868;4.180;2023-05-07T07:23:59;16.80;99.90
20670;DHT22;10494;50.868;4.180;2023-05-07T07:26:24;17.00;99.90
20670;DHT22;10494;50.868;4.180;2023-05-07T07:28:50;16.90;99.90
20670;DHT22;10494;50.868;4.180;2023-05-07T07:31:16;16.90;99.90
20670;DHT22;10494;50.868;4.180;2023-05-07T07:33:41;16.90;99.90
20670;DHT22;10494;50.868;4.180;2023-05-07T07:36:07;16.90;99.90
20670;DHT22;10494;50.868;4.180;2023-05-07T07:38:34;16.90;99.90
20670;DHT22;10494;50.868;4.180;2023-05-07T07:41:00;17.00;99.90
20670;DHT22;10494;50.868;4.180;2023-05-07T07:43:27;17.00;99.90
20670;DHT22;10494;50.868;4.180;2023-05-07T07:45:53;17.10;99.90
20670;DHT22;10494;50.868;4.180;2023-05-07T07:48:18;17.10;99.90
20670;DHT22;10494;50.868;4.180;2023-05-07T07:50:44;17.20;99.90
20670;DHT22;10494;50.868;4.180;2023-05-07T07:53:10;17.20;99.90
20670;DHT22;10494;50.868;4.180;2023-05-07T07:55:39;17.30;99.90
20670;DHT22;10494;50.868;4.180;2023-05-07T07:58:05;17.30;99.90
20670;DHT22;10494;50.868;4.180;2023-05-07T08:00:31;17.20;99.90
20670;DHT22;10494;50.868;4.180;2023-05-07T08:02:56;17.20;99.90
20670;DHT22;10494;50.868;4.180;2023-05-07T08:05:23;17.10;99.90
20670;DHT22;10494;50.868;4.180;2023-05-07T08:07:48;17.20;99.90
20670;DHT22;10494;50.868;4.180;2023-05-07T08:10:18;17.20;99.90
20670;DHT22;10494;50.868;4.180;2023-05-07T08:12:50;17.30;99.90
20670;DHT22;10494;50.868;4.180;2023-05-07T08:15:17;17.30;99.90
20670;DHT22;10494;50.868;4.180;2023-05-07T08:17:43;17.20;99.90
20670;DHT22;10494;50.868;4.180;2023-05-07T08:20:09;17.20;99.90
20670;DHT22;10494;50.868;4.180;2023-05-07T08:22:35;17.20;99.90
20670;DHT22;10494;50.868;4.180;2023-05-07T08:25:01;16.90;99.90
20670;DHT22;10494;50.868;4.180;2023-05-07T08:27:27;16.80;99.90
20670;DHT22;10494;50.868;4.180;2023-05-07T08:29:53;16.50;99.90
20670;DHT22;10494;50.868;4.180;2023-05-07T08:32:20;16.50;99.90
20670;DHT22;10494;50.868;4.180;2023-05-07T08:34:46;16.60;99.90
20670;DHT22;10494;50.868;4.180;2023-05-07T08:37:11;16.60;99.90
20670;DHT22;10494;50.868;4.180;2023-05-07T08:39:37;16.40;99.90
20670;DHT22;10494;50.868;4.180;2023-05-07T08:42:04;16.50;99.90
20670;DHT22;10494;50.868;4.180;2023-05-07T08:44:33;16.50;99.90
20670;DHT22;10494;50.868;4.180;2023-05-07T08:47:02;16.50;99.90
20670;DHT22;10494;50.868;4.180;2023-05-07T08:49:28;16.60;99.90
20670;DHT22;10494;50.868;4.180;2023-05-07T08:51:54;16.80;99.90
20670;DHT22;10494;50.868;4.180;2023-05-07T08:54:21;16.90;99.90
20670;DHT22;10494;50.868;4.180;2023-05-07T08:56:47;17.00;99.90
20670;DHT22;10494;50.868;4.180;2023-05-07T08:59:13;17.00;99.90
20670;DHT22;10494;50.868;4.180;2023-05-07T09:01:39;17.10;99.90
20670;DHT22;10494;50.868;4.180;2023-05-07T09:04:05;17.10;99.90
20670;DHT22;10494;50.868;4.180;2023-05-07T09:06:32;17.10;99.90
20670;DHT22;10494;50.868;4.180;2023-05-07T09:08:58;17.20;99.90
20670;DHT22;10494;50.868;4.180;2023-05-07T09:11:27;17.20;99.90
20670;DHT22;10494;50.868;4.180;2023-05-07T09:13:56;17.30;99.90
20670;DHT22;10494;50.868;4.180;2023-05-07T09:16:24;17.40;99.90
20670;DHT22;10494;50.868;4.180;2023-05-07T09:18:54;17.50;99.90
20670;DHT22;10494;50.868;4.180;2023-05-07T09:21:21;17.60;99.90
20670;DHT22;10494;50.868;4.180;2023-05-07T09:23:50;17.50;99.90
20670;DHT22;10494;50.868;4.180;2023-05-07T09:26:16;17.50;99.90
20670;DHT22;10494;50.868;4.180;2023-05-07T09:28:42;17.60;99.90
20670;DHT22;10494;50.868;4.180;2023-05-07T09:31:08;17.50;99.90
20670;DHT22;10494;50.868;4.180;2023-05-07T09:33:34;17.50;99.90
20670;DHT22;10494;50.868;4.180;2023-05-07T09:36:07;17.50;99.90
20670;DHT22;10494;50.868;4.180;2023-05-07T09:38:34;17.50;99.90
20670;DHT22;10494;50.868;4.180;2023-05-07T09:41:11;17.50;99.90
20670;DHT22;10494;50.868;4.180;2023-05-07T09:43:38;17.30;99.90
20670;DHT22;10494;50.868;4.180;2023-05-07T09:46:10;17.30;99.90
20670;DHT22;10494;50.868;4.180;2023-05-07T09:48:38;17.20;99.90
20670;DHT22;10494;50.868;4.180;2023-05-07T09:51:54;17.10;99.90
20670;DHT22;10494;50.868;4.180;2023-05-07T09:53:57;17.20;99.90
20670;DHT22;10494;50.868;4.180;2023-05-07T09:56:22;17.30;99.90
20670;DHT22;10494;50.868;4.180;2023-05-07T09:58:49;17.30;99.90
20670;DHT22;10494;50.868;4.180;2023-05-07T10:01:18;17.20;99.90
20670;DHT22;10494;50.868;4.180;2023-05-07T10:03:48;17.20;99.90
20670;DHT22;10494;50.868;4.180;2023-05-07T10:06:15;17.30;99.90
20670;DHT22;10494;50.868;4.180;2023-05-07T10:08:43;17.30;99.90
20670;DHT22;10494;50.868;4.180;2023-05-07T10:11:09;17.40;99.90
20670;DHT22;10494;50.868;4.180;2023-05-07T10:13:36;17.40;99.90
20670;DHT22;10494;50.868;4.180;2023-05-07T10:16:05;17.30;99.90
20670;DHT22;10494;50.868;4.180;2023-05-07T10:18:31;17.30;99.90
20670;DHT22;10494;50.868;4.180;2023-05-07T10:21:20;17.20;99.90
20670;DHT22;10494;50.868;4.180;2023-05-07T10:23:50;17.10;99.90
20670;DHT22;10494;50.868;4.180;2023-05-07T10:26:17;17.10;99.90
20670;DHT22;10494;50.868;4.180;2023-05-07T10:28:45;17.10;99.90
20670;DHT22;10494;50.868;4.180;2023-05-07T10:33:51;16.90;99.90
20670;DHT22;10494;50.868;4.180;2023-05-07T10:36:18;16.80;99.90
20670;DHT22;10494;50.868;4.180;2023-05-07T10:38:45;16.70;99.90
20670;DHT22;10494;50.868;4.180;2023-05-07T10:41:12;16.60;99.90
20670;DHT22;10494;50.868;4.180;2023-05-07T10:43:44;16.70;99.90
20670;DHT22;10494;50.868;4.180;2023-05-07T10:46:20;16.70;99.90
20670;DHT22;10494;50.868;4.180;2023-05-07T10:51:32;16.80;99.90
20670;DHT22;10494;50.868;4.180;2023-05-07T11:02:00;16.80;99.90
20670;DHT22;10494;50.868;4.180;2023-05-07T11:04:28;17.10;99.90
20670;DHT22;10494;50.868;4.180;2023-05-07T11:09:57;17.50;99.90
20670;DHT22;10494;50.868;4.180;2023-05-07T11:15:37;17.40;99.90
20670;DHT22;10494;50.868;4.180;2023-05-07T11:18:03;17.50;99.90
20670;DHT22;10494;50.868;4.180;2023-05-07T11:26:08;17.60;99.90
20670;DHT22;10494;50.868;4.180;2023-05-07T11:28:42;17.60;99.90
20670;DHT22;10494;50.868;4.180;2023-05-07T11:31:08;17.60;99.90
20670;DHT22;10494;50.868;4.180;2023-05-07T11:33:35;17.50;99.90
20670;DHT22;10494;50.868;4.180;2023-05-07T11:36:03;17.50;99.90
20670;DHT22;10494;50.868;4.180;2023-05-07T11:38:30;17.40;99.90
20670;DHT22;10494;50.868;4.180;2023-05-07T11:40:57;17.60;99.90
20670;DHT22;10494;50.868;4.180;2023-05-07T11:43:24;17.80;99.90
20670;DHT22;10494;50.868;4.180;2023-05-07T11:45:50;18.00;99.90
20670;DHT22;10494;50.868;4.180;2023-05-07T11:48:16;18.10;99.90
20670;DHT22;10494;50.868;4.180;2023-05-07T11:53:22;18.20;99.90
20670;DHT22;10494;50.868;4.180;2023-05-07T11:55:55;18.30;99.90
20670;DHT22;10494;50.868;4.180;2023-05-07T11:58:23;18.40;99.90
20670;DHT22;10494;50.868;4.180;2023-05-07T12:00:52;18.60;99.90
20670;DHT22;10494;50.868;4.180;2023-05-07T12:03:19;18.80;99.90
20670;DHT22;10494;50.868;4.180;2023-05-07T12:05:45;19.00;99.90
20670;DHT22;10494;50.868;4.180;2023-05-07T12:08:18;19.50;99.90
20670;DHT22;10494;50.868;4.180;2023-05-07T12:10:45;19.50;99.90
20670;DHT22;10494;50.868;4.180;2023-05-07T12:13:20;19.70;99.90
20670;DHT22;10494;50.868;4.180;2023-05-07T12:15:53;19.30;99.90
20670;DHT22;10494;50.868;4.180;2023-05-07T12:18:19;19.30;99.90
20670;DHT22;10494;50.868;4.180;2023-05-07T12:20:46;19.20;99.90
20670;DHT22;10494;50.868;4.180;2023-05-07T12:23:12;19.10;99.90
20670;DHT22;10494;50.868;4.180;2023-05-07T12:25:39;18.90;99.90
20670;DHT22;10494;50.868;4.180;2023-05-07T12:28:07;19.00;99.90
20670;DHT22;10494;50.868;4.180;2023-05-07T12:30:38;19.20;99.90
20670;DHT22;10494;50.868;4.180;2023-05-07T12:33:04;19.40;99.90
20670;DHT22;10494;50.868;4.180;2023-05-07T12:35:40;19.30;99.90
20670;DHT22;10494;50.868;4.180;2023-05-07T12:38:11;19.40;99.90
20670;DHT22;10494;50.868;4.180;2023-05-07T12:40:37;19.60;99.90
20670;DHT22;10494;50.868;4.180;2023-05-07T12:43:03;19.80;99.90
20670;DHT22;10494;50.868;4.180;2023-05-07T12:45:29;19.90;99.90
20670;DHT22;10494;50.868;4.180;2023-05-07T12:47:55;20.00;99.90
20670;DHT22;10494;50.868;4.180;2023-05-07T12:50:21;19.60;99.90
20670;DHT22;10494;50.868;4.180;2023-05-07T12:52:47;19.50;99.90
20670;DHT22;10494;50.868;4.180;2023-05-07T12:55:17;19.60;99.90
20670;DHT22;10494;50.868;4.180;2023-05-07T12:57:48;19.80;99.90
20670;DHT22;10494;50.868;4.180;2023-05-07T13:00:14;20.10;99.90
20670;DHT22;10494;50.868;4.180;2023-05-07T13:02:42;20.40;99.90
20670;DHT22;10494;50.868;4.180;2023-05-07T13:05:10;20.30;99.90
20670;DHT22;10494;50.868;4.180;2023-05-07T13:07:36;20.10;99.90
20670;DHT22;10494;50.868;4.180;2023-05-07T13:10:03;19.80;99.90
20670;DHT22;10494;50.868;4.180;2023-05-07T13:12:29;19.90;99.90
20670;DHT22;10494;50.868;4.180;2023-05-07T13:14:54;19.90;99.90
20670;DHT22;10494;50.868;4.180;2023-05-07T13:17:20;20.20;99.90
20670;DHT22;10494;50.868;4.180;2023-05-07T13:19:46;20.40;99.90
20670;DHT22;10494;50.868;4.180;2023-05-07T13:22:11;20.30;99.90
20670;DHT22;10494;50.868;4.180;2023-05-07T13:24:37;20.40;99.90
20670;DHT22;10494;50.868;4.180;2023-05-07T13:27:05;20.10;99.90
20670;DHT22;10494;50.868;4.180;2023-05-07T13:29:31;20.20;99.90
20670;DHT22;10494;50.868;4.180;2023-05-07T13:31:57;20.50;99.90
20670;DHT22;10494;50.868;4.180;2023-05-07T13:34:23;20.60;99.90
20670;DHT22;10494;50.868;4.180;2023-05-07T13:36:48;20.40;99.90
20670;DHT22;10494;50.868;4.180;2023-05-07T13:39:14;20.30;99.90
20670;DHT22;10494;50.868;4.180;2023-05-07T13:41:41;20.30;99.90
20670;DHT22;10494;50.868;4.180;2023-05-07T13:44:06;20.50;99.90
20670;DHT22;10494;50.868;4.180;2023-05-07T13:46:32;20.50;99.90
20670;DHT22;10494;50.868;4.180;2023-05-07T13:48:58;20.40;99.90
20670;DHT22;10494;50.868;4.180;2023-05-07T13:51:23;20.50;99.90
20670;DHT22;10494;50.868;4.180;2023-05-07T13:53:49;20.70;99.90
20670;DHT22;10494;50.868;4.180;2023-05-07T13:56:15;20.70;99.90
20670;DHT22;10494;50.868;4.180;2023-05-07T13:58:41;21.00;99.90
20670;DHT22;10494;50.868;4.180;2023-05-07T14:01:07;21.20;99.90
20670;DHT22;10494;50.868;4.180;2023-05-07T14:03:32;21.30;99.90
20670;DHT22;10494;50.868;4.180;2023-05-07T14:05:59;21.60;99.90
20670;DHT22;10494;50.868;4.180;2023-05-07T14:08:27;21.90;99.90
20670;DHT22;10494;50.868;4.180;2023-05-07T14:10:52;21.90;99.90
20670;DHT22;10494;50.868;4.180;2023-05-07T14:13:18;21.80;99.90
20670;DHT22;10494;50.868;4.180;2023-05-07T14:15:44;21.90;99.90
20670;DHT22;10494;50.868;4.180;2023-05-07T14:18:14;22.10;99.90
20670;DHT22;10494;50.868;4.180;2023-05-07T14:20:40;22.00;99.90
20670;DHT22;10494;50.868;4.180;2023-05-07T14:23:06;22.00;99.90
20670;DHT22;10494;50.868;4.180;2023-05-07T14:25:32;21.90;99.90
20670;DHT22;10494;50.868;4.180;2023-05-07T14:27:57;21.80;99.90
20670;DHT22;10494;50.868;4.180;2023-05-07T14:30:24;21.90;99.90
20670;DHT22;10494;50.868;4.180;2023-05-07T14:32:50;22.00;99.90
20670;DHT22;10494;50.868;4.180;2023-05-07T14:35:16;22.20;99.90
20670;DHT22;10494;50.868;4.180;2023-05-07T14:37:43;22.10;99.90
20670;DHT22;10494;50.868;4.180;2023-05-07T14:40:09;22.10;99.90
20670;DHT22;10494;50.868;4.180;2023-05-07T14:42:35;22.00;99.90
20670;DHT22;10494;50.868;4.180;2023-05-07T14:45:01;22.10;99.90
20670;DHT22;10494;50.868;4.180;2023-05-07T14:47:26;22.10;99.90
20670;DHT22;10494;50.868;4.180;2023-05-07T14:49:52;21.80;99.90
20670;DHT22;10494;50.868;4.180;2023-05-07T14:52:18;22.10;99.90
20670;DHT22;10494;50.868;4.180;2023-05-07T14:54:44;22.40;99.90
20670;DHT22;10494;50.868;4.180;2023-05-07T14:57:10;22.40;99.90
20670;DHT22;10494;50.868;4.180;2023-05-07T14:59:38;22.30;99.90
20670;DHT22;10494;50.868;4.180;2023-05-07T15:02:04;22.20;99.90
20670;DHT22;10494;50.868;4.180;2023-05-07T15:04:32;22.30;99.90
20670;DHT22;10494;50.868;4.180;2023-05-07T15:06:58;22.40;99.90
20670;DHT22;10494;50.868;4.180;2023-05-07T15:09:23;22.60;99.90
20670;DHT22;10494;50.868;4.180;2023-05-07T15:11:49;22.70;99.90
20670;DHT22;10494;50.868;4.180;2023-05-07T15:14:15;22.60;99.90
20670;DHT22;10494;50.868;4.180;2023-05-07T15:16:40;22.20;99.90
20670;DHT22;10494;50.868;4.180;2023-05-07T15:19:06;21.70;99.90
20670;DHT22;10494;50.868;4.180;2023-05-07T15:21:32;21.70;99.90
20670;DHT22;10494;50.868;4.180;2023-05-07T15:24:00;21.90;99.90
20670;DHT22;10494;50.868;4.180;2023-05-07T15:26:26;22.00;99.90
20670;DHT22;10494;50.868;4.180;2023-05-07T15:28:51;21.60;99.90
20670;DHT22;10494;50.868;4.180;2023-05-07T15:31:17;21.60;99.90
20670;DHT22;10494;50.868;4.180;2023-05-07T15:33:43;21.50;99.90
20670;DHT22;10494;50.868;4.180;2023-05-07T15:36:10;21.60;99.90
20670;DHT22;10494;50.868;4.180;2023-05-07T15:38:36;21.50;99.90
20670;DHT22;10494;50.868;4.180;2023-05-07T15:41:01;21.50;99.90
20670;DHT22;10494;50.868;4.180;2023-05-07T15:43:28;21.60;99.90
20670;DHT22;10494;50.868;4.180;2023-05-07T15:45:54;21.40;99.90
20670;DHT22;10494;50.868;4.180;2023-05-07T15:48:20;21.40;99.90
20670;DHT22;10494;50.868;4.180;2023-05-07T15:50:45;21.40;99.90
20670;DHT22;10494;50.868;4.180;2023-05-07T15:53:11;21.20;99.90